Time;durP1;ratioP1;P1;durP2;ratioP2;P2;SDS_P1;SDS_P2;PMS_P1;PMS_P2;Temp;Humidity;BMP_temperature;BMP_pressure;BME280_temperature;BME280_humidity;BME280_pressure;Samples;Min_cycle;Max_cycle;Signal;HPM_P1;HPM_P2
2022/03/01 00:00:43;;;;;;;8.48;3.25;;;;;;;-0.48;52.46;101160.66;5134071;27;20043;-45
2022/03/01 00:03:09;;;;;;;7.88;3.53;;;;;;;-0.61;52.64;101140.59;5132209;27;20059;-45
2022/03/01 00:05:35;;;;;;;6.45;3.50;;;;;;;-0.56;52.91;101151.84;5098255;27;20031;-45
2022/03/01 00:08:01;;;;;;;10.00;4.00;;;;;;;-0.74;52.68;101126.56;5115267;27;20103;-50
2022/03/01 00:10:26;;;;;;;8.95;3.83;;;;;;;-0.58;52.94;101151.81;5134211;27;20075;-48
2022/03/01 00:12:52;;;;;;;8.93;4.13;;;;;;;-0.58;53.40;101141.59;5134677;27;20063;-48
2022/03/01 00:15:18;;;;;;;10.15;3.63;;;;;;;-0.65;53.12;101128.56;5104893;28;20043;-51
2022/03/01 00:17:44;;;;;;;10.35;4.15;;;;;;;-0.59;53.62;101150.06;5127819;27;20088;-49
2022/03/01 00:20:10;;;;;;;11.82;3.85;;;;;;;-0.62;53.99;101149.94;5080838;27;20078;-53
2022/03/01 00:22:36;;;;;;;11.30;4.30;;;;;;;-0.63;53.89;101152.47;5082000;27;20051;-47
2022/03/01 00:25:02;;;;;;;13.50;4.63;;;;;;;-0.74;53.96;101136.78;5133603;27;20039;-51
2022/03/01 00:27:28;;;;;;;13.57;4.70;;;;;;;-0.76;54.13;101140.94;5078396;28;20152;-47
2022/03/01 00:29:54;;;;;;;17.83;4.80;;;;;;;-0.80;54.38;101139.13;5133762;27;20547;-47
2022/03/01 00:32:20;;;;;;;14.35;4.85;;;;;;;-0.81;54.47;101139.06;5130027;27;20050;-50
2022/03/01 00:34:45;;;;;;;10.52;4.90;;;;;;;-1.00;54.60;101107.81;5131960;27;20039;-50
2022/03/01 00:37:11;;;;;;;10.95;4.65;;;;;;;-0.81;54.81;101136.50;5132993;27;20054;-47
2022/03/01 00:39:37;;;;;;;18.00;5.68;;;;;;;-0.88;55.07;101125.19;5133198;27;20164;-49
2022/03/01 00:42:03;;;;;;;13.57;5.07;;;;;;;-0.84;54.99;101133.84;5115034;27;20041;-48
2022/03/01 00:44:29;;;;;;;16.95;5.68;;;;;;;-0.83;55.08;101135.56;5133550;27;20070;-47
2022/03/01 00:46:54;;;;;;;16.10;5.07;;;;;;;-0.86;55.09;101134.66;5132921;27;20413;-48
2022/03/01 00:49:20;;;;;;;15.75;5.60;;;;;;;-0.89;55.39;101136.25;5132804;27;20043;-53
2022/03/01 00:51:49;;;;;;;16.30;5.43;;;;;;;-0.94;55.33;101135.19;5132848;27;20071;-50
2022/03/01 00:54:15;;;;;;;11.45;6.05;;;;;;;-0.99;55.53;101126.50;5132935;27;20054;-47
2022/03/01 00:57:06;;;;;;;13.98;5.30;;;;;;;-0.99;55.83;101129.94;5114799;27;20039;-48
2022/03/01 00:59:32;;;;;;;14.23;5.72;;;;;;;-0.99;55.89;101122.28;5124029;27;20112;-50
2022/03/01 01:01:58;;;;;;;16.23;4.72;;;;;;;-1.00;55.60;101127.34;5133328;27;20081;-48
2022/03/01 01:04:23;;;;;;;13.05;5.10;;;;;;;-1.03;55.77;101129.78;5093808;28;20043;-46
2022/03/01 01:06:49;;;;;;;14.50;5.25;;;;;;;-1.10;56.05;101121.03;5112080;28;20040;-47
2022/03/01 01:09:15;;;;;;;22.98;6.00;;;;;;;-1.14;55.95;101131.94;5110939;28;20118;-48
2022/03/01 01:11:41;;;;;;;11.95;5.85;;;;;;;-1.26;56.19;101110.25;5128511;27;20043;-47
2022/03/01 01:14:07;;;;;;;14.88;5.60;;;;;;;-1.24;56.38;101122.22;5111025;28;20054;-49
2022/03/01 01:16:33;;;;;;;19.30;5.63;;;;;;;-1.17;56.60;101131.84;5111725;28;20044;-49
2022/03/01 01:18:59;;;;;;;12.75;5.70;;;;;;;-1.22;56.94;101127.38;5111356;28;20138;-48
2022/03/01 01:22:39;;;;;;;12.13;5.60;;;;;;;-1.20;56.69;101128.34;5111670;28;20062;-47
2022/03/01 01:24:11;;;;;;;10.95;4.72;;;;;;;-1.19;56.43;101122.38;5109789;28;20045;-49
2022/03/01 01:26:36;;;;;;;17.23;5.50;;;;;;;-1.27;56.79;101114.47;5111955;28;20550;-47
2022/03/01 01:29:02;;;;;;;14.95;5.57;;;;;;;-1.15;56.55;101124.25;5093674;28;20039;-49
2022/03/01 01:31:28;;;;;;;17.23;5.30;;;;;;;-1.13;56.79;101130.25;5112263;28;20096;-46
2022/03/01 01:33:54;;;;;;;16.10;5.18;;;;;;;-1.15;56.72;101126.81;5110100;28;20063;-49
2022/03/01 01:36:19;;;;;;;14.93;5.22;;;;;;;-1.13;56.73;101125.16;5110006;28;20047;-51
2022/03/01 01:38:45;;;;;;;14.85;5.47;;;;;;;-1.16;56.76;101118.28;5111769;28;20078;-47
2022/03/01 01:41:11;;;;;;;15.38;5.47;;;;;;;-1.23;56.80;101112.88;5111409;28;20039;-47
2022/03/01 01:43:37;;;;;;;12.43;5.03;;;;;;;-1.14;57.03;101126.84;5111441;28;20068;-48
2022/03/01 01:46:02;;;;;;;17.05;5.15;;;;;;;-1.13;57.05;101120.06;5107873;28;20039;-46
2022/03/01 01:48:28;;;;;;;13.48;5.78;;;;;;;-1.15;57.02;101116.59;5107096;28;20044;-46
2022/03/01 01:50:54;;;;;;;24.58;6.00;;;;;;;-1.16;57.19;101117.41;5111348;28;20130;-46
2022/03/01 01:53:20;;;;;;;14.30;6.18;;;;;;;-1.18;57.30;101124.13;5111155;28;20048;-48
2022/03/01 01:55:45;;;;;;;16.67;6.35;;;;;;;-1.30;57.31;101099.91;5093300;28;20126;-48
2022/03/01 01:58:11;;;;;;;15.55;5.93;;;;;;;-1.19;57.41;101119.84;5109108;28;20055;-49
2022/03/01 02:00:37;;;;;;;15.98;6.30;;;;;;;-1.22;57.25;101120.59;5111173;28;20039;-48
2022/03/01 02:03:03;;;;;;;16.05;5.63;;;;;;;-1.25;57.29;101117.06;5114709;27;20055;-49
2022/03/01 02:05:29;;;;;;;15.25;6.15;;;;;;;-1.27;57.32;101118.69;5113814;27;20031;-47
2022/03/01 02:07:55;;;;;;;18.13;5.82;;;;;;;-1.29;57.48;101119.50;5112728;27;20505;-47
2022/03/01 02:10:21;;;;;;;12.73;5.93;;;;;;;-1.32;57.51;101119.41;5131646;27;20043;-50
2022/03/01 02:12:47;;;;;;;17.25;6.43;;;;;;;-1.48;57.36;101101.81;5131680;27;20035;-47
2022/03/01 02:15:14;;;;;;;15.93;7.00;;;;;;;-1.50;57.66;101105.97;5131422;27;20035;-46
2022/03/01 02:17:41;;;;;;;15.15;6.95;;;;;;;-1.42;57.44;101126.69;5130994;27;20034;-49
2022/03/01 02:20:20;;;;;;;22.60;7.40;;;;;;;-1.53;57.38;101108.44;5113483;27;20517;-49
2022/03/01 02:22:47;;;;;;;16.20;6.25;;;;;;;-1.51;57.69;101122.09;5131263;27;20469;-49
2022/03/01 02:25:13;;;;;;;21.92;7.18;;;;;;;-1.56;57.93;101121.03;5131630;27;20413;-48
2022/03/01 02:27:39;;;;;;;20.10;7.18;;;;;;;-1.56;57.79;101123.59;5112174;27;20070;-47
2022/03/01 02:30:07;;;;;;;23.98;6.38;;;;;;;-1.57;57.96;101121.84;5131157;27;20049;-48
2022/03/01 02:32:33;;;;;;;30.55;6.20;;;;;;;-1.55;57.98;101120.25;5116504;28;20035;-46
2022/03/01 02:35:00;;;;;;;14.90;6.40;;;;;;;-1.59;58.09;101125.16;5113125;28;20506;-49
2022/03/01 02:37:26;;;;;;;18.98;6.45;;;;;;;-1.61;58.19;101127.66;5131399;28;20043;-47
2022/03/01 02:39:53;;;;;;;14.13;5.95;;;;;;;-1.59;58.13;101125.16;5131274;28;20031;-47
2022/03/01 02:42:20;;;;;;;13.18;6.03;;;;;;;-1.66;58.18;101116.41;5129676;28;20413;-50
2022/03/01 02:44:47;;;;;;;18.50;6.00;;;;;;;-1.60;57.89;101129.41;5131310;28;20030;-50
2022/03/01 02:47:14;;;;;;;21.95;6.40;;;;;;;-1.61;58.06;101130.22;5131747;28;20506;-49
2022/03/01 02:49:39;;;;;;;17.05;6.32;;;;;;;-1.67;58.01;101129.97;5131361;28;20054;-48
2022/03/01 02:52:06;;;;;;;19.23;6.10;;;;;;;-1.89;58.23;101105.38;5130990;28;20035;-47
2022/03/01 02:54:32;;;;;;;19.27;6.38;;;;;;;-1.79;58.25;101129.53;5131221;28;20050;-46
2022/03/01 02:57:00;;;;;;;20.10;5.78;;;;;;;-1.76;58.22;101121.97;5131053;28;20039;-48
2022/03/01 02:59:28;;;;;;;15.48;5.75;;;;;;;-1.78;57.75;101121.06;5130829;28;20039;-48
2022/03/01 03:01:55;;;;;;;15.70;6.03;;;;;;;-1.79;58.16;101125.31;5130436;28;20422;-51
2022/03/01 03:04:20;;;;;;;12.98;5.55;;;;;;;-1.80;57.98;101126.09;5131108;27;20089;-47
2022/03/01 03:06:46;;;;;;;15.98;5.57;;;;;;;-1.96;58.21;101121.22;5131013;28;20074;-48
2022/03/01 03:09:11;;;;;;;11.52;5.20;;;;;;;-1.93;58.32;101128.97;5130622;28;20074;-50
2022/03/01 03:11:37;;;;;;;12.85;4.97;;;;;;;-2.01;58.44;101122.72;5131225;28;20475;-51
2022/03/01 03:14:03;;;;;;;19.17;6.03;;;;;;;-2.04;58.28;101124.28;5131155;28;20422;-50
2022/03/01 03:16:28;;;;;;;13.68;5.68;;;;;;;-2.13;58.25;101119.69;5131159;28;20126;-47
2022/03/01 03:18:54;;;;;;;15.57;5.57;;;;;;;-2.11;58.49;101123.19;5130474;28;20418;-48
2022/03/01 03:21:20;;;;;;;15.07;5.40;;;;;;;-2.21;58.49;101086.28;5131213;28;20201;-47
2022/03/01 03:23:45;;;;;;;14.73;6.05;;;;;;;-2.05;58.33;101108.13;5130579;28;20070;-48
2022/03/01 03:26:11;;;;;;;12.90;5.63;;;;;;;-2.04;58.23;101109.84;5131064;28;20055;-49
2022/03/01 03:28:38;;;;;;;14.25;5.82;;;;;;;-2.03;58.50;101110.72;5130752;28;20092;-47
2022/03/01 03:31:03;;;;;;;10.82;5.40;;;;;;;-2.02;58.27;101103.16;5131039;28;20039;-50
2022/03/01 03:33:29;;;;;;;13.55;5.93;;;;;;;-1.99;58.36;101113.44;5129566;27;20542;-46
2022/03/01 03:35:56;;;;;;;22.77;7.10;;;;;;;-1.97;58.40;101108.41;5110361;28;20035;-50
2022/03/01 03:38:23;;;;;;;22.60;8.15;;;;;;;-1.98;57.97;101110.09;5130910;27;20039;-50
2022/03/01 03:40:49;;;;;;;23.00;8.18;;;;;;;-2.13;58.15;101090.00;5134658;27;20039;-46
2022/03/01 03:43:15;;;;;;;30.55;11.60;;;;;;;-2.02;58.11;101109.91;5134536;27;20035;-49
2022/03/01 03:45:41;;;;;;;24.63;11.45;;;;;;;-2.06;58.33;101110.63;5134586;27;20055;-48
2022/03/01 03:48:06;;;;;;;31.48;13.70;;;;;;;-2.03;58.30;101116.69;5133890;27;20118;-47
2022/03/01 03:50:32;;;;;;;41.38;16.48;;;;;;;-2.03;58.07;101115.81;5133912;27;20076;-47
2022/03/01 03:52:58;;;;;;;42.75;16.08;;;;;;;-2.10;57.83;101103.66;5115956;27;20047;-46
2022/03/01 03:55:23;;;;;;;36.67;14.80;;;;;;;-2.01;58.11;101115.06;5133492;27;20039;-48
2022/03/01 03:57:49;;;;;;;47.95;18.20;;;;;;;-2.11;57.89;101099.38;5134151;27;20049;-50
2022/03/01 04:00:17;;;;;;;51.50;18.63;;;;;;;-2.22;58.24;101076.03;5115635;27;20127;-48
2022/03/01 04:02:46;;;;;;;41.00;18.15;;;;;;;-2.05;58.36;101108.13;5134030;27;20130;-48
2022/03/01 04:05:15;;;;;;;;;;;;;;;-2.02;58.23;101107.38;5133650;27;20100;-48
2022/03/01 04:07:41;;;;;;;55.20;19.00;;;;;;;-2.02;58.33;101109.91;5116290;27;19918;-47
2022/03/01 04:10:08;;;;;;;41.67;17.10;;;;;;;-2.01;58.71;101112.53;5115146;27;20042;-48
2022/03/01 04:12:34;;;;;;;43.80;18.70;;;;;;;-2.00;58.50;101109.19;5115057;27;20054;-46
2022/03/01 04:15:00;;;;;;;45.92;19.00;;;;;;;-2.00;58.70;101106.63;5115101;27;20045;-47
2022/03/01 04:17:27;;;;;;;48.47;20.92;;;;;;;-1.99;58.71;101107.50;5133490;27;20043;-48
2022/03/01 04:19:52;;;;;;;45.20;19.35;;;;;;;-2.04;58.43;101091.16;5114744;27;20066;-49
2022/03/01 04:22:18;;;;;;;48.33;20.20;;;;;;;-1.93;58.54;101110.25;5133242;27;20073;-49
2022/03/01 04:24:44;;;;;;;56.97;22.55;;;;;;;-1.91;58.72;101119.72;5115055;27;20043;-51
2022/03/01 04:27:10;;;;;;;55.97;21.38;;;;;;;-1.88;58.28;101114.72;5115025;27;20043;-52
2022/03/01 04:29:36;;;;;;;58.35;23.33;;;;;;;-1.84;58.50;101115.75;5133754;27;20050;-47
2022/03/01 04:32:02;;;;;;;51.00;21.98;;;;;;;-1.82;58.30;101114.09;5115322;27;20039;-49
2022/03/01 04:34:28;;;;;;;62.00;22.80;;;;;;;-1.81;58.50;101115.84;5114248;27;20047;-51
2022/03/01 04:36:54;;;;;;;50.13;20.23;;;;;;;-1.79;58.39;101117.66;5114375;27;20039;-52
2022/03/01 04:39:19;;;;;;;55.67;22.38;;;;;;;-1.76;58.55;101101.59;5114813;27;20119;-51
2022/03/01 04:41:45;;;;;;;52.17;20.08;;;;;;;-1.72;58.52;101111.09;5133135;27;20042;-47
2022/03/01 04:44:11;;;;;;;54.15;20.50;;;;;;;-1.67;58.05;101116.38;5132989;27;20066;-49
2022/03/01 04:46:36;;;;;;;56.33;21.42;;;;;;;-1.67;58.34;101112.13;5115939;27;20087;-51
2022/03/01 04:49:03;;;;;;;49.75;19.98;;;;;;;-1.66;58.51;101111.31;5132908;27;20093;-52
2022/03/01 04:51:29;;;;;;;46.78;19.30;;;;;;;-1.63;58.14;101113.13;5132259;27;20042;-49
2022/03/01 04:53:55;;;;;;;43.80;18.50;;;;;;;-1.59;58.12;101114.97;5132431;27;20043;-46
2022/03/01 04:56:21;;;;;;;55.38;21.15;;;;;;;-1.58;57.94;101109.94;5132793;27;20038;-48
2022/03/01 04:58:47;;;;;;;53.33;19.33;;;;;;;-1.51;58.14;101116.13;5139519;27;20047;-51
2022/03/01 05:01:13;;;;;;;44.22;15.73;;;;;;;-1.49;57.92;101123.03;5134912;27;20098;-48
2022/03/01 05:03:39;;;;;;;44.08;17.05;;;;;;;-1.47;57.79;101113.75;5113423;27;20139;-49
2022/03/01 05:06:05;;;;;;;39.35;17.15;;;;;;;-1.44;57.72;101112.97;5124540;27;20050;-51
2022/03/01 05:08:30;;;;;;;41.58;15.45;;;;;;;-1.47;57.80;101110.34;5119327;27;20046;-47
2022/03/01 05:11:00;;;;;;;39.53;14.40;;;;;;;-1.35;57.52;101126.94;5113248;27;20308;-49
2022/03/01 05:13:26;;;;;;;32.83;13.82;;;;;;;-1.29;57.38;101129.72;5117540;27;20510;-50
2022/03/01 05:15:52;;;;;;;33.10;13.80;;;;;;;-1.26;57.20;101120.44;5118331;27;20079;-50
2022/03/01 05:18:18;;;;;;;28.38;12.13;;;;;;;-1.22;57.53;101125.72;5115740;27;20041;-50
2022/03/01 05:20:44;;;;;;;38.10;16.33;;;;;;;-1.32;57.15;101109.22;5116175;27;20570;-48
2022/03/01 05:23:09;;;;;;;28.38;11.43;;;;;;;-1.18;57.07;101119.91;5114292;27;20135;-48
2022/03/01 05:25:35;;;;;;;34.13;10.15;;;;;;;-1.12;56.76;101124.34;5113149;27;20088;-51
2022/03/01 05:28:01;;;;;;;22.58;10.00;;;;;;;-1.04;56.74;101123.81;5119939;27;20035;-48
2022/03/01 05:30:28;;;;;;;29.50;10.48;;;;;;;-0.95;56.52;101116.50;5101526;27;20125;-48
2022/03/01 05:32:57;;;;;;;30.30;11.38;;;;;;;-0.82;56.14;101117.75;5119352;27;20085;-61
2022/03/01 05:35:28;;;;;;;31.60;10.35;;;;;;;-0.63;55.74;101112.44;5114670;27;20050;-51
2022/03/01 05:37:54;;;;;;;24.63;8.93;;;;;;;-0.59;55.45;101105.78;5129491;27;20035;-52
2022/03/01 05:40:26;;;;;;;25.40;8.70;;;;;;;-0.31;54.71;101117.75;5115790;27;20039;-46
2022/03/01 05:42:52;;;;;;;35.40;13.02;;;;;;;-0.08;54.27;101109.13;5111153;28;20368;-51
2022/03/01 05:45:17;;;;;;;27.02;9.65;;;;;;;0.26;54.01;101111.03;5109856;28;20031;-47
2022/03/01 05:47:43;;;;;;;29.10;9.40;;;;;;;0.82;53.09;101110.97;5111767;28;20181;-44
2022/03/01 05:50:10;;;;;;;22.52;7.43;;;;;;;1.65;51.44;101114.88;5111407;28;20042;-43
2022/03/01 05:52:37;;;;;;;20.38;7.57;;;;;;;2.54;49.28;101121.19;5110025;28;20043;-46
2022/03/01 05:55:04;;;;;;;16.85;7.43;;;;;;;3.32;47.47;101110.72;5111507;28;20035;-47
2022/03/01 05:57:30;;;;;;;21.90;8.02;;;;;;;4.03;45.41;101110.19;5111286;28;20066;-44
2022/03/01 05:59:56;;;;;;;23.52;7.93;;;;;;;4.82;43.88;101108.63;5111258;28;20479;-46
2022/03/01 06:02:22;;;;;;;18.15;7.55;;;;;;;5.59;42.61;101111.16;5109750;28;20041;-45
2022/03/01 06:04:48;;;;;;;20.05;6.93;;;;;;;6.29;40.62;101110.84;5129726;27;20471;-45
2022/03/01 06:07:13;;;;;;;20.35;6.82;;;;;;;6.86;39.26;101106.81;5114215;27;20057;-47
2022/03/01 06:09:39;;;;;;;20.52;7.00;;;;;;;7.41;38.19;101109.53;5109064;27;20049;-47
2022/03/01 06:12:05;;;;;;;26.02;8.60;;;;;;;7.90;37.47;101105.25;5113390;27;20043;-45
2022/03/01 06:14:31;;;;;;;18.55;7.13;;;;;;;8.46;36.55;101097.38;5113690;27;20035;-48
2022/03/01 06:16:56;;;;;;;22.35;7.78;;;;;;;8.96;35.01;101107.53;5125499;27;20039;-47
2022/03/01 06:19:22;;;;;;;20.20;8.75;;;;;;;9.39;34.66;101105.56;5129801;27;20517;-45
2022/03/01 06:21:48;;;;;;;19.05;7.40;;;;;;;9.88;33.62;101097.41;5131444;27;20070;-45
2022/03/01 06:24:14;;;;;;;29.27;8.30;;;;;;;10.35;32.83;101102.16;5133143;27;20074;-49
2022/03/01 06:26:39;;;;;;;22.50;7.18;;;;;;;10.73;31.96;101091.31;5112588;27;20148;-46
2022/03/01 06:29:05;;;;;;;22.65;7.95;;;;;;;11.25;31.56;101102.72;5112856;27;20056;-50
2022/03/01 06:31:31;;;;;;;24.38;7.75;;;;;;;11.68;30.82;101107.28;5113321;27;20103;-46
2022/03/01 06:33:57;;;;;;;21.27;7.63;;;;;;;12.21;30.06;101107.25;5113084;28;20043;-51
2022/03/01 06:36:24;;;;;;;20.05;7.65;;;;;;;12.65;29.14;101108.16;5113041;28;20039;-48
2022/03/01 06:38:49;;;;;;;26.65;8.07;;;;;;;13.20;28.63;101113.09;5129851;28;20167;-49
2022/03/01 06:41:15;;;;;;;24.05;8.43;;;;;;;13.64;27.93;101111.22;5120016;28;20129;-49
2022/03/01 06:43:41;;;;;;;21.15;8.88;;;;;;;14.02;27.51;101112.91;5129810;28;20043;-46
2022/03/01 06:46:08;;;;;;;24.38;9.05;;;;;;;14.43;26.78;101102.22;5112814;28;20035;-49
2022/03/01 06:48:34;;;;;;;22.40;8.20;;;;;;;14.83;26.26;101121.13;5112828;28;20551;-48
2022/03/01 06:51:00;;;;;;;27.63;8.25;;;;;;;15.01;25.56;101100.56;5128789;28;20050;-44
2022/03/01 06:53:26;;;;;;;28.33;8.10;;;;;;;15.36;25.14;101104.72;5112766;28;20042;-47
2022/03/01 06:55:52;;;;;;;29.08;8.85;;;;;;;15.57;24.45;101098.81;5112761;28;20070;-45
2022/03/01 06:58:18;;;;;;;21.50;8.05;;;;;;;15.60;23.56;101098.72;5128814;28;20510;-46
2022/03/01 07:00:44;;;;;;;31.75;8.45;;;;;;;15.69;23.72;101108.91;5129976;28;20062;-45
2022/03/01 07:03:10;;;;;;;26.15;8.48;;;;;;;15.82;23.19;101107.59;5130869;28;20158;-45
2022/03/01 07:05:35;;;;;;;19.67;7.90;;;;;;;16.05;23.22;101106.84;5130500;28;20188;-46
2022/03/01 07:08:02;;;;;;;20.35;7.68;;;;;;;16.36;22.66;101110.09;5137338;27;20043;-47
2022/03/01 07:10:27;;;;;;;26.52;8.65;;;;;;;16.70;22.37;101112.38;5108713;28;20047;-49
2022/03/01 07:12:54;;;;;;;26.02;8.07;;;;;;;16.97;21.73;101086.00;5115845;28;20138;-47
2022/03/01 07:15:20;;;;;;;21.35;7.68;;;;;;;17.25;21.27;101089.28;5129826;27;20130;-50
2022/03/01 07:17:46;;;;;;;25.00;7.65;;;;;;;17.51;20.95;101104.03;5134689;27;20049;-45
2022/03/01 07:20:13;;;;;;;22.65;8.25;;;;;;;17.99;20.46;101106.44;5095756;28;20396;-48
2022/03/01 07:22:39;;;;;;;18.40;8.30;;;;;;;18.11;20.38;101104.13;5096065;28;20445;-49
2022/03/01 07:25:06;;;;;;;18.98;7.63;;;;;;;18.59;19.90;101101.16;5095961;28;20064;-49
2022/03/01 07:27:31;;;;;;;31.73;8.57;;;;;;;18.81;19.73;101108.97;5114354;28;20122;-45
2022/03/01 07:29:57;;;;;;;29.58;8.82;;;;;;;19.08;19.35;101101.56;5131980;27;20125;-48
2022/03/01 07:32:23;;;;;;;25.95;8.40;;;;;;;19.08;19.22;101098.06;5134343;27;20043;-48
2022/03/01 07:34:49;;;;;;;21.10;8.40;;;;;;;19.26;19.24;101100.69;5134602;27;20387;-47
2022/03/01 07:37:15;;;;;;;31.55;7.82;;;;;;;19.68;18.86;101099.59;5134977;27;20134;-49
2022/03/01 07:39:41;;;;;;;29.08;8.50;;;;;;;20.24;18.28;101109.91;5134614;27;20043;-47
2022/03/01 07:42:06;;;;;;;18.75;7.53;;;;;;;20.68;17.68;101095.25;5112627;28;20527;-48
2022/03/01 07:44:36;;;;;;;24.95;7.85;;;;;;;20.86;17.54;101097.84;5114210;28;20526;-47
2022/03/01 07:47:07;;;;;;;19.58;8.23;;;;;;;21.21;17.09;101104.72;5133506;27;20046;-45
2022/03/01 07:49:33;;;;;;;29.05;9.13;;;;;;;21.29;17.05;101101.66;5116409;27;20039;-46
2022/03/01 07:51:59;;;;;;;21.65;8.10;;;;;;;21.08;17.31;101104.53;5115822;27;20042;-50
2022/03/01 07:54:25;;;;;;;23.17;8.32;;;;;;;20.92;17.33;101082.50;5134406;27;20574;-45
2022/03/01 07:56:50;;;;;;;26.65;7.95;;;;;;;21.02;16.91;101090.78;5115943;27;20039;-47
2022/03/01 07:59:16;;;;;;;25.35;8.23;;;;;;;20.88;17.15;101096.81;5134519;27;20051;-45
2022/03/01 08:01:42;;;;;;;22.65;8.38;;;;;;;21.01;16.87;101095.19;5134615;27;20096;-47
2022/03/01 08:04:08;;;;;;;18.38;7.63;;;;;;;21.10;16.69;101101.78;5115733;27;20078;-49
2022/03/01 08:06:34;;;;;;;18.27;7.85;;;;;;;21.28;16.80;101092.84;5114840;27;20038;-45
2022/03/01 08:08:59;;;;;;;18.48;7.07;;;;;;;21.38;16.77;101090.53;5133611;27;20043;-49
2022/03/01 08:11:25;;;;;;;24.52;8.25;;;;;;;21.55;16.55;101090.44;5133809;27;20047;-47
2022/03/01 08:13:51;;;;;;;23.88;7.95;;;;;;;21.55;16.64;101091.28;5134001;27;20038;-52
2022/03/01 08:16:17;;;;;;;18.67;8.15;;;;;;;21.30;16.57;101092.78;5115463;27;20537;-47
2022/03/01 08:18:43;;;;;;;20.20;8.10;;;;;;;21.29;16.25;101099.84;5133779;27;20035;-49
2022/03/01 08:21:09;;;;;;;17.73;7.15;;;;;;;21.24;16.18;101096.63;5115050;27;20046;-47
2022/03/01 08:23:36;;;;;;;31.40;7.95;;;;;;;21.17;16.26;101095.25;5115418;27;20031;-47
2022/03/01 08:26:04;;;;;;;26.98;9.00;;;;;;;21.48;16.08;101089.06;5131969;27;20043;-51
2022/03/01 08:28:30;;;;;;;24.13;7.50;;;;;;;21.73;16.03;101092.00;5133548;27;20047;-47
2022/03/01 08:30:56;;;;;;;25.85;7.40;;;;;;;21.62;15.73;101072.38;5114822;27;20079;-50
2022/03/01 08:33:24;;;;;;;17.52;7.85;;;;;;;21.55;15.80;101066.63;5132365;27;20066;-47
2022/03/01 08:35:50;;;;;;;23.02;7.38;;;;;;;21.70;16.01;101094.84;5114897;27;20445;-46
2022/03/01 08:38:16;;;;;;;23.00;7.18;;;;;;;21.65;16.11;101083.66;5133327;27;20047;-47
2022/03/01 08:40:42;;;;;;;20.70;7.50;;;;;;;21.64;15.93;101087.25;5133639;27;20042;-47
2022/03/01 08:43:08;;;;;;;29.70;7.57;;;;;;;21.87;15.71;101091.22;5133385;27;20073;-50
2022/03/01 08:45:34;;;;;;;16.48;6.15;;;;;;;22.20;15.20;101080.41;5133122;27;20031;-50
2022/03/01 08:48:00;;;;;;;19.30;5.80;;;;;;;22.30;15.09;101085.06;5114620;27;20085;-46
2022/03/01 08:50:26;;;;;;;21.00;5.80;;;;;;;22.22;15.24;101087.34;5114723;27;20049;-49
2022/03/01 08:52:52;;;;;;;19.67;6.45;;;;;;;22.12;14.89;101080.91;5133341;27;20047;-47
2022/03/01 08:55:18;;;;;;;22.98;7.05;;;;;;;22.09;15.04;101081.06;5114628;27;20047;-46
2022/03/01 08:57:44;;;;;;;14.70;7.00;;;;;;;22.19;15.06;101087.50;5115054;27;20066;-47
2022/03/01 09:00:12;;;;;;;11.70;6.18;;;;;;;22.36;15.27;101078.56;5129689;27;20039;-48
2022/03/01 09:02:38;;;;;;;17.70;7.35;;;;;;;22.79;14.75;101082.09;5114874;27;20035;-47
2022/03/01 09:05:08;;;;;;;28.20;7.05;;;;;;;23.11;14.61;101083.56;5114306;27;20080;-46
2022/03/01 09:07:34;;;;;;;20.23;7.20;;;;;;;23.39;14.35;101090.59;5131260;27;20138;-46
2022/03/01 09:10:01;;;;;;;11.70;4.70;;;;;;;23.12;13.86;101090.56;5132841;27;20035;-48
2022/03/01 09:12:28;;;;;;;14.40;4.68;;;;;;;22.48;14.02;101077.81;5114915;27;20418;-46
2022/03/01 09:14:54;;;;;;;11.60;4.85;;;;;;;23.12;13.74;101074.66;5132638;27;20039;-50
2022/03/01 09:17:20;;;;;;;15.82;6.25;;;;;;;23.05;13.24;101075.97;5096956;27;20591;-48
2022/03/01 09:19:45;;;;;;;11.55;6.25;;;;;;;22.59;13.69;101055.94;5132539;27;20085;-46
2022/03/01 09:22:12;;;;;;;14.90;6.22;;;;;;;23.42;13.52;101044.41;5132486;27;20125;-46
2022/03/01 09:24:39;;;;;;;15.88;7.75;;;;;;;24.12;12.76;101055.63;5132381;27;20039;-46
2022/03/01 09:27:05;;;;;;;11.38;5.10;;;;;;;23.34;12.55;101033.44;5114016;27;20043;-48
2022/03/01 09:29:32;;;;;;;10.52;4.68;;;;;;;23.41;12.51;101048.84;5132382;27;20039;-50
2022/03/01 09:31:58;;;;;;;13.93;4.90;;;;;;;23.76;12.46;101049.19;5113995;27;20047;-49
2022/03/01 09:34:25;;;;;;;6.55;4.15;;;;;;;23.85;12.43;101034.44;5132312;27;20042;-50
2022/03/01 09:36:51;;;;;;;7.55;4.32;;;;;;;24.17;12.32;101042.88;5113660;27;20503;-46
2022/03/01 09:39:17;;;;;;;11.77;4.57;;;;;;;24.58;12.14;101050.63;5113559;27;20043;-50
2022/03/01 09:41:43;;;;;;;10.73;4.32;;;;;;;24.82;12.13;101047.06;5113988;27;20039;-48
2022/03/01 09:44:09;;;;;;;16.35;4.90;;;;;;;24.71;12.21;101044.31;5132515;27;20441;-50
2022/03/01 09:46:35;;;;;;;18.10;5.10;;;;;;;24.81;11.98;101037.38;5131550;27;20079;-46
2022/03/01 09:49:04;;;;;;;13.73;4.22;;;;;;;24.98;11.96;101045.97;5132075;27;20035;-49
2022/03/01 09:51:30;;;;;;;;;;;;;;;25.10;11.85;101040.63;5131985;27;20047;-50
2022/03/01 09:53:56;;;;;;;10.15;4.10;;;;;;;25.11;11.48;101049.47;5114308;27;19958;-51
2022/03/01 09:56:22;;;;;;;22.58;3.97;;;;;;;25.29;11.54;101045.44;5132135;27;20075;-47
2022/03/01 09:58:49;;;;;;;11.10;4.15;;;;;;;25.75;11.61;101047.38;5132054;27;20091;-48
2022/03/01 10:01:16;;;;;;;12.75;4.55;;;;;;;26.29;11.50;101035.13;5113642;27;20038;-46
2022/03/01 10:03:48;;;;;;;5.67;3.10;;;;;;;26.00;10.72;101028.53;5113696;27;20050;-46
2022/03/01 10:06:15;;;;;;;15.32;3.25;;;;;;;25.89;10.67;101023.19;5131858;27;20138;-49
2022/03/01 10:08:41;;;;;;;6.03;2.67;;;;;;;26.26;10.11;101013.19;5130788;27;20414;-50
2022/03/01 10:11:07;;;;;;;7.00;3.08;;;;;;;26.55;10.35;101019.72;5096858;27;20050;-49
2022/03/01 10:13:37;;;;;;;13.15;3.30;;;;;;;26.63;10.04;101014.66;5112654;27;20509;-51
2022/03/01 10:16:08;;;;;;;9.25;2.90;;;;;;;26.54;9.88;101013.53;5132056;27;20047;-47
2022/03/01 10:18:39;;;;;;;5.93;2.42;;;;;;;26.69;9.98;101008.81;5130786;27;20529;-48
2022/03/01 10:21:10;;;;;;;12.20;3.92;;;;;;;26.57;9.98;101015.13;5112766;27;20050;-49
2022/03/01 10:23:45;;;;;;;8.10;2.95;;;;;;;26.34;10.27;101011.63;5113369;27;20039;-48
2022/03/01 10:26:29;;;;;;;10.32;4.65;;;;;;;26.18;10.22;101005.75;5131658;27;20519;-49
2022/03/01 10:28:56;;;;;;;7.68;3.65;;;;;;;26.34;10.17;101008.09;5131489;27;20039;-47
2022/03/01 10:31:27;;;;;;;5.30;3.00;;;;;;;26.37;9.72;100982.06;5112628;28;20403;-50
2022/03/01 10:34:07;;;;;;;11.93;4.18;;;;;;;26.37;10.15;100992.72;5112975;28;20123;-50
2022/03/01 10:36:36;;;;;;;7.55;4.40;;;;;;;26.50;10.25;100996.09;5131053;28;20088;-48
2022/03/01 10:39:05;;;;;;;11.50;3.58;;;;;;;26.52;10.14;100995.97;5113128;28;20042;-50
2022/03/01 10:41:33;;;;;;;13.45;4.00;;;;;;;26.49;10.37;100990.88;5131068;28;20043;-48
2022/03/01 10:43:59;;;;;;;13.00;3.45;;;;;;;26.74;10.15;100993.28;5096198;28;20041;-49
2022/03/01 10:46:26;;;;;;;9.60;3.85;;;;;;;26.72;9.95;100995.22;5128688;27;20031;-48
2022/03/01 10:49:22;;;;;;;7.32;3.03;;;;;;;26.81;9.69;100991.78;5114351;27;20506;-49
2022/03/01 10:51:59;;;;;;;7.88;2.67;;;;;;;26.64;9.45;100988.81;5115099;27;20510;-47
2022/03/01 10:54:31;;;;;;;7.78;2.80;;;;;;;26.58;9.98;100990.16;5096309;28;20031;-47
2022/03/01 10:56:58;;;;;;;10.50;3.65;;;;;;;26.53;10.10;100993.19;5115216;28;20036;-50
2022/03/01 10:59:26;;;;;;;8.50;3.13;;;;;;;26.73;9.89;100985.41;5079804;28;20040;-49
2022/03/01 11:01:52;;;;;;;9.65;3.20;;;;;;;26.83;10.05;100981.84;5097247;27;20451;-49
2022/03/01 11:04:21;;;;;;;7.10;3.33;;;;;;;26.87;9.48;100978.00;5116886;27;20142;-48
2022/03/01 11:06:47;;;;;;;15.00;3.35;;;;;;;26.96;9.53;100963.88;5099699;27;20047;-46
2022/03/01 11:09:14;;;;;;;8.57;3.03;;;;;;;26.93;10.02;100979.31;5116032;27;20035;-45
2022/03/01 11:11:41;;;;;;;7.72;2.90;;;;;;;26.99;9.51;100976.13;5116290;27;20098;-51
2022/03/01 11:14:08;;;;;;;10.30;4.05;;;;;;;26.96;9.27;100976.38;5134945;27;20095;-47